Time;durP1;ratioP1;P1;durP2;ratioP2;P2;SDS_P1;SDS_P2;PMS_P1;PMS_P2;Temp;Humidity;BMP_temperature;BMP_pressure;BME280_temperature;BME280_humidity;BME280_pressure;Samples;Min_cycle;Max_cycle;Signal;HPM_P1;HPM_P2
2023/04/06 00:01:08;;;;;;;20.92;8.18;;;2.30;75.40;;;;;;6186395;23;20021;-81
2023/04/06 00:03:35;;;;;;;16.17;7.78;;;2.20;75.40;;;;;;6186713;23;20773;-81
2023/04/06 00:06:03;;;;;;;14.35;6.30;;;2.90;75.90;;;;;;6189014;23;20347;-82
2023/04/06 00:08:30;;;;;;;9.45;4.43;;;2.20;75.90;;;;;;6211021;23;20044;-81
2023/04/06 00:10:57;;;;;;;10.27;5.03;;;2.10;75.90;;;;;;6211930;23;20020;-81
2023/04/06 00:13:25;;;;;;;14.43;5.80;;;2.20;75.70;;;;;;6211868;23;20023;-81
2023/04/06 00:15:52;;;;;;;10.43;5.15;;;2.10;76.10;;;;;;6187034;23;20043;-81
2023/04/06 00:18:19;;;;;;;12.00;5.00;;;2.10;76.50;;;;;;6186602;23;20052;-81
2023/04/06 00:20:46;;;;;;;12.90;4.97;;;0.80;76.20;;;;;;6211459;23;20016;-81
2023/04/06 00:23:14;;;;;;;13.35;6.05;;;1.40;76.40;;;;;;6187128;23;20020;-81
2023/04/06 00:25:41;;;;;;;11.15;4.80;;;1.90;76.90;;;;;;6186872;23;20399;-81
2023/04/06 00:28:08;;;;;;;12.63;5.93;;;1.80;76.80;;;;;;6211802;23;20024;-81
2023/04/06 00:30:35;;;;;;;17.02;6.68;;;1.90;76.80;;;;;;6156954;23;20095;-81
2023/04/06 00:33:02;;;;;;;14.07;6.05;;;0.80;76.70;;;;;;6181187;23;20025;-81
2023/04/06 00:35:30;;;;;;;22.38;7.13;;;1.80;77.10;;;;;;6132732;23;20116;-81
2023/04/06 00:37:57;;;;;;;15.15;6.68;;;1.80;77.40;;;;;;6157295;23;20031;-81
2023/04/06 00:40:25;;;;;;;17.02;8.10;;;0.40;75.70;;;;;;6132429;23;20053;-82
2023/04/06 00:42:52;;;;;;;18.63;6.25;;;1.70;77.10;;;;;;6180241;23;20021;-81
2023/04/06 00:45:19;;;;;;;18.92;8.15;;;1.70;77.40;;;;;;6179051;23;20460;-81
2023/04/06 00:47:46;;;;;;;14.93;7.32;;;0.40;76.80;;;;;;6181911;23;20021;-81
2023/04/06 00:50:13;;;;;;;19.55;7.85;;;1.70;77.50;;;;;;6156676;23;20024;-81
2023/04/06 00:52:40;;;;;;;18.35;7.25;;;1.60;77.80;;;;;;6157390;23;20048;-81
2023/04/06 00:55:10;;;;;;;14.18;6.22;;;2.90;79.40;;;;;;6181250;23;20059;-81
2023/04/06 00:57:41;;;;;;;16.65;7.97;;;1.70;80.50;;;;;;6181231;23;20025;-81
2023/04/06 01:00:09;;;;;;;14.85;6.40;;;1.70;81.10;;;;;;6180111;23;20060;-81
2023/04/06 01:02:37;;;;;;;18.38;7.75;;;1.70;80.20;;;;;;6214666;23;20071;-81
2023/04/06 01:05:05;;;;;;;17.05;7.75;;;1.60;80.00;;;;;;6192441;23;20016;-81
2023/04/06 01:07:43;;;;;;;27.10;11.65;;;1.60;80.30;;;;;;6218209;23;20032;-81
2023/04/06 01:10:26;;;;;;;30.13;12.05;;;1.60;80.20;;;;;;6194583;23;20135;-81
2023/04/06 01:13:02;;;;;;;27.02;12.43;;;1.60;81.90;;;;;;6194519;23;20024;-81
2023/04/06 01:16:02;;;;;;;31.17;13.13;;;1.50;82.20;;;;;;6176431;23;20027;-81
2023/04/06 01:18:50;;;;;;;27.98;11.32;;;1.50;82.80;;;;;;6243127;23;20031;-81
2023/04/06 01:21:26;;;;;;;27.98;12.52;;;1.50;83.80;;;;;;6194902;23;20474;-81
2023/04/06 01:24:07;;;;;;;25.33;11.15;;;1.50;83.20;;;;;;6195545;23;20449;-81
2023/04/06 01:26:56;;;;;;;29.63;11.80;;;1.40;82.60;;;;;;6196487;23;20069;-81
2023/04/06 01:29:26;;;;;;;33.75;14.18;;;1.40;82.70;;;;;;6192574;23;20501;-81
2023/04/06 01:31:53;;;;;;;28.80;13.27;;;1.40;82.50;;;;;;6192225;23;20027;-81
2023/04/06 01:34:20;;;;;;;32.65;13.38;;;1.40;82.20;;;;;;6192644;23;20492;-81
2023/04/06 01:36:47;;;;;;;28.38;11.45;;;1.30;82.60;;;;;;6217037;23;20078;-81
2023/04/06 01:39:26;;;;;;;24.98;9.85;;;1.40;83.10;;;;;;6194243;23;20031;-81
2023/04/06 01:41:53;;;;;;;22.63;10.52;;;1.30;82.90;;;;;;6192276;23;20023;-80
2023/04/06 01:44:21;;;;;;;16.53;7.17;;;1.80;83.70;;;;;;6192680;23;20016;-81
2023/04/06 01:46:56;;;;;;;13.18;6.25;;;1.10;83.30;;;;;;6194517;23;20111;-81
2023/04/06 01:49:24;;;;;;;14.30;6.30;;;1.10;83.50;;;;;;6192927;23;20020;-81
2023/04/06 01:51:54;;;;;;;15.45;6.40;;;1.20;83.90;;;;;;6193840;23;20087;-81
2023/04/06 01:54:22;;;;;;;16.77;6.10;;;1.20;83.60;;;;;;6192134;23;20051;-81
2023/04/06 01:57:01;;;;;;;11.55;5.20;;;1.10;82.50;;;;;;6195103;23;20099;-81
2023/04/06 01:59:33;;;;;;;12.30;5.13;;;1.20;83.40;;;;;;6193209;23;20095;-81
2023/04/06 02:02:06;;;;;;;12.23;5.70;;;1.10;83.80;;;;;;6192068;23;20024;-81
2023/04/06 02:04:34;;;;;;;14.45;5.93;;;1.10;82.80;;;;;;6215721;23;20024;-81
2023/04/06 02:07:11;;;;;;;12.27;5.03;;;1.10;83.10;;;;;;6216132;23;20031;-81
2023/04/06 02:09:38;;;;;;;12.80;5.70;;;1.10;84.20;;;;;;6217458;23;20020;-81
2023/04/06 02:12:10;;;;;;;11.67;4.23;;;1.10;83.70;;;;;;6193083;23;20031;-81
2023/04/06 02:14:37;;;;;;;10.95;4.70;;;1.10;84.00;;;;;;6191990;23;20020;-81
2023/04/06 02:17:05;;;;;;;11.88;5.35;;;1.10;84.60;;;;;;6216756;23;20016;-81
2023/04/06 02:19:32;;;;;;;14.07;5.80;;;1.00;85.30;;;;;;6216194;23;20030;-81
2023/04/06 02:21:59;;;;;;;12.43;5.32;;;1.00;85.50;;;;;;6191843;23;20047;-81
2023/04/06 02:24:26;;;;;;;12.10;5.28;;;1.10;85.50;;;;;;6216596;23;20027;-81
2023/04/06 02:26:53;;;;;;;15.00;5.68;;;1.00;86.70;;;;;;6216307;23;20020;-81
2023/04/06 02:29:20;;;;;;;11.82;5.45;;;1.00;87.60;;;;;;6216695;23;20543;-80
2023/04/06 02:31:47;;;;;;;8.70;4.45;;;0.90;87.70;;;;;;6216941;23;20463;-81
2023/04/06 02:34:17;;;;;;;12.80;5.70;;;0.90;86.90;;;;;;6216786;23;20070;-81
2023/04/06 02:36:48;;;;;;;11.63;5.53;;;0.90;86.00;;;;;;6192592;23;20020;-81
2023/04/06 02:39:15;;;;;;;10.43;5.10;;;1.20;86.50;;;;;;6216793;23;20028;-81
2023/04/06 02:41:43;;;;;;;14.18;6.00;;;0.90;88.20;;;;;;6190768;23;20024;-80
2023/04/06 02:44:11;;;;;;;12.70;6.03;;;0.80;88.90;;;;;;6216333;23;20023;-80
2023/04/06 02:46:42;;;;;;;10.93;5.55;;;0.80;88.70;;;;;;6193500;23;20019;-81
2023/04/06 02:49:09;;;;;;;12.93;6.25;;;0.80;89.40;;;;;;6216507;23;20103;-81
2023/04/06 02:51:36;;;;;;;14.10;5.85;;;0.70;90.00;;;;;;6191738;23;20099;-80
2023/04/06 02:54:20;;;;;;;12.68;5.78;;;0.70;89.70;;;;;;6216661;23;20103;-80
2023/04/06 02:56:48;;;;;;;11.43;5.10;;;1.10;89.30;;;;;;6191729;23;20691;-81
2023/04/06 02:59:15;;;;;;;13.80;5.07;;;0.70;89.40;;;;;;6191578;23;20135;-81
2023/04/06 03:01:49;;;;;;;13.98;6.05;;;0.70;89.20;;;;;;6192737;23;20665;-81
2023/04/06 03:04:16;;;;;;;12.65;6.15;;;0.70;88.40;;;;;;6216138;23;20550;-80
2023/04/06 03:06:43;;;;;;;14.88;6.32;;;0.70;88.40;;;;;;6190831;23;20653;-80
2023/04/06 03:09:21;;;;;;;11.40;5.65;;;0.60;89.20;;;;;;6215881;23;20020;-81
2023/04/06 03:11:48;;;;;;;14.70;6.25;;;0.60;89.80;;;;;;6214313;23;20022;-81
2023/04/06 03:14:17;;;;;;;13.65;5.97;;;0.60;89.70;;;;;;6191160;23;20020;-81
2023/04/06 03:16:44;;;;;;;15.00;6.15;;;0.50;89.30;;;;;;6216588;23;20028;-81
2023/04/06 03:19:16;;;;;;;13.50;5.75;;;0.60;88.60;;;;;;6218801;23;20358;-80
2023/04/06 03:21:43;;;;;;;14.40;5.90;;;0.60;89.30;;;;;;6215536;23;20027;-81
2023/04/06 03:24:13;;;;;;;14.35;6.25;;;0.50;89.30;;;;;;6190785;23;20023;-81
2023/04/06 03:26:42;;;;;;;12.45;6.13;;;0.50;90.00;;;;;;6192211;23;20447;-80
2023/04/06 03:29:09;;;;;;;15.13;6.55;;;0.60;89.70;;;;;;6191673;23;20030;-80
2023/04/06 03:31:36;;;;;;;12.55;6.15;;;0.50;90.00;;;;;;6191317;23;20043;-80
2023/04/06 03:34:18;;;;;;;13.90;6.47;;;0.40;90.00;;;;;;6195095;23;20073;-81
2023/04/06 03:36:45;;;;;;;17.58;5.90;;;0.40;90.40;;;;;;6191422;23;20024;-80
2023/04/06 03:39:23;;;;;;;13.82;6.15;;;0.40;90.70;;;;;;6193439;23;20032;-80
2023/04/06 03:41:51;;;;;;;12.82;5.85;;;0.40;90.70;;;;;;6190350;23;20024;-80
2023/04/06 03:44:31;;;;;;;15.88;6.18;;;0.40;90.20;;;;;;6193396;23;20024;-81
2023/04/06 03:46:59;;;;;;;12.38;5.40;;;0.50;90.00;;;;;;6216732;23;20031;-81
2023/04/06 03:49:27;;;;;;;18.60;7.22;;;0.30;90.30;;;;;;6216522;23;20047;-81
2023/04/06 03:51:56;;;;;;;18.30;6.32;;;0.30;90.40;;;;;;6190601;23;20016;-81
2023/04/06 03:54:23;;;;;;;15.40;7.80;;;0.30;90.30;;;;;;6190970;23;20077;-81
2023/04/06 03:56:50;;;;;;;16.15;5.80;;;0.30;90.40;;;;;;6215571;23;20024;-81
2023/04/06 03:59:17;;;;;;;14.38;6.32;;;0.30;90.60;;;;;;6216073;23;20121;-80
2023/04/06 04:01:44;;;;;;;14.50;6.53;;;0.30;91.10;;;;;;6215795;23;20035;-81
2023/04/06 04:04:12;;;;;;;13.43;5.97;;;0.30;91.10;;;;;;6216966;23;20012;-81
2023/04/06 04:06:39;;;;;;;17.70;6.63;;;0.30;90.80;;;;;;6216092;23;20108;-80
2023/04/06 04:09:07;;;;;;;15.23;5.82;;;0.20;90.60;;;;;;6216904;23;20024;-81
2023/04/06 04:11:35;;;;;;;15.68;6.70;;;0.30;91.00;;;;;;6215996;23;20115;-80
2023/04/06 04:14:02;;;;;;;16.83;7.72;;;0.30;91.00;;;;;;6215119;23;20022;-81
2023/04/06 04:16:29;;;;;;;17.42;6.85;;;0.60;91.20;;;;;;6215208;23;20024;-80
2023/04/06 04:18:58;;;;;;;21.45;7.30;;;0.20;91.20;;;;;;6192550;23;20110;-80
2023/04/06 04:21:25;;;;;;;20.95;6.80;;;0.20;91.00;;;;;;6216053;23;20019;-80
2023/04/06 04:23:53;;;;;;;16.42;7.20;;;0.20;91.40;;;;;;6191102;23;20020;-80
2023/04/06 04:26:20;;;;;;;24.02;7.75;;;0.90;92.00;;;;;;6215533;23;20351;-80
2023/04/06 04:28:47;;;;;;;19.52;7.85;;;0.20;91.90;;;;;;6216043;23;20124;-80
2023/04/06 04:31:17;;;;;;;18.50;7.40;;;0.20;92.00;;;;;;6190747;23;20021;-80
2023/04/06 04:33:46;;;;;;;17.05;7.35;;;0.20;91.90;;;;;;6191684;23;20082;-80
2023/04/06 04:36:21;;;;;;;14.23;6.72;;;0.20;90.60;;;;;;6216151;23;20074;-80
2023/04/06 04:38:48;;;;;;;18.27;6.75;;;0.30;90.10;;;;;;6191038;23;20024;-80
2023/04/06 04:41:15;;;;;;;18.92;7.15;;;0.20;90.70;;;;;;6215400;23;20030;-80
2023/04/06 04:43:44;;;;;;;17.85;6.13;;;0.20;90.30;;;;;;6216248;23;20751;-80
2023/04/06 04:46:13;;;;;;;14.32;5.35;;;0.30;90.00;;;;;;6214351;23;20111;-80
2023/04/06 04:48:42;;;;;;;14.10;5.43;;;0.30;89.30;;;;;;6191274;23;20374;-80
2023/04/06 04:51:09;;;;;;;16.13;6.65;;;0.30;88.70;;;;;;6215984;23;20095;-81
2023/04/06 04:54:05;;;;;;;13.57;5.25;;;0.30;89.20;;;;;;6216391;23;20020;-80
2023/04/06 04:56:32;;;;;;;19.10;6.60;;;0.40;89.40;;;;;;6215690;23;20666;-80
2023/04/06 04:59:09;;;;;;;13.07;5.65;;;0.40;90.00;;;;;;6216908;23;20024;-81
2023/04/06 05:01:39;;;;;;;15.60;5.95;;;0.40;89.60;;;;;;6192414;23;20051;-80
2023/04/06 05:04:23;;;;;;;17.70;6.63;;;1.00;90.20;;;;;;6215628;23;20380;-80
2023/04/06 05:07:04;;;;;;;14.13;6.25;;;0.60;90.00;;;;;;6191282;23;20020;-80
2023/04/06 05:09:32;;;;;;;15.35;6.55;;;0.70;90.10;;;;;;6213970;23;20351;-81
2023/04/06 05:12:00;;;;;;;18.42;7.80;;;0.70;90.00;;;;;;6190981;23;20070;-81
2023/04/06 05:14:30;;;;;;;17.40;7.05;;;0.80;89.90;;;;;;6218117;23;20504;-81
2023/04/06 05:16:59;;;;;;;22.73;9.40;;;0.80;89.80;;;;;;6216727;23;20456;-81
2023/04/06 05:19:26;;;;;;;29.77;10.38;;;0.80;89.70;;;;;;6191755;23;20412;-81
2023/04/06 05:21:53;;;;;;;46.60;16.08;;;1.00;89.60;;;;;;6192457;23;20020;-81
2023/04/06 05:24:20;;;;;;;77.65;29.05;;;1.00;89.10;;;;;;6193034;23;20020;-81
2023/04/06 05:26:49;;;;;;;84.10;30.85;;;1.00;89.30;;;;;;6193211;23;20020;-81
2023/04/06 05:29:21;;;;;;;93.32;30.80;;;1.10;89.30;;;;;;6193327;23;20024;-80
2023/04/06 05:31:50;;;;;;;117.43;41.35;;;1.20;88.40;;;;;;6190721;23;20800;-80
2023/04/06 05:34:17;;;;;;;118.57;43.15;;;1.20;88.10;;;;;;6215921;23;20586;-80
2023/04/06 05:36:45;;;;;;;53.20;22.17;;;1.30;88.90;;;;;;6193497;23;20069;-81
2023/04/06 05:39:19;;;;;;;59.60;23.08;;;1.30;88.00;;;;;;6194526;23;20024;-80
2023/04/06 05:41:51;;;;;;;119.28;41.72;;;1.30;88.10;;;;;;6191980;23;20020;-80
2023/04/06 05:44:29;;;;;;;159.52;61.22;;;1.40;87.70;;;;;;6195235;23;20024;-80
2023/04/06 05:47:09;;;;;;;39.72;19.00;;;1.40;87.30;;;;;;6193341;23;20048;-81
2023/04/06 05:49:38;;;;;;;23.73;9.82;;;1.40;87.60;;;;;;6189368;23;20031;-81
2023/04/06 05:52:10;;;;;;;28.02;13.45;;;1.50;87.70;;;;;;6192863;23;20066;-81
2023/04/06 05:54:37;;;;;;;29.52;13.77;;;1.50;87.40;;;;;;6192180;23;20024;-81
2023/04/06 05:57:05;;;;;;;25.90;13.18;;;1.60;88.20;;;;;;6192507;23;20625;-81
2023/04/06 05:59:32;;;;;;;19.77;7.88;;;1.60;87.20;;;;;;6192354;23;20055;-81
2023/04/06 06:02:01;;;;;;;22.90;10.00;;;1.50;85.10;;;;;;6190358;23;20028;-79
2023/04/06 06:04:31;;;;;;;16.83;8.50;;;1.70;85.80;;;;;;6191238;23;20024;-80
2023/04/06 06:06:58;;;;;;;20.63;9.30;;;1.70;84.40;;;;;;6191720;23;20020;-80
2023/04/06 06:09:37;;;;;;;17.48;7.97;;;1.80;83.80;;;;;;6195087;23;20043;-79
2023/04/06 06:12:16;;;;;;;14.57;7.78;;;1.80;83.10;;;;;;6195668;23;20094;-81
2023/04/06 06:14:43;;;;;;;18.30;9.52;;;1.90;82.80;;;;;;6192978;23;20351;-80
2023/04/06 06:17:10;;;;;;;18.90;8.90;;;2.00;82.80;;;;;;6192335;23;20034;-80
2023/04/06 06:19:38;;;;;;;15.13;7.57;;;2.10;82.00;;;;;;6193544;23;20071;-81
2023/04/06 06:22:07;;;;;;;18.13;7.60;;;2.20;81.80;;;;;;6195907;23;20048;-79
2023/04/06 06:24:38;;;;;;;25.05;11.18;;;2.20;81.20;;;;;;6193870;23;20538;-80
2023/04/06 06:27:07;;;;;;;20.30;8.77;;;2.30;81.80;;;;;;6192267;23;20789;-78
2023/04/06 06:29:36;;;;;;;22.30;8.50;;;2.30;81.60;;;;;;6192572;23;20467;-78
2023/04/06 06:32:03;;;;;;;19.17;8.27;;;2.40;81.40;;;;;;6192250;23;20020;-81
2023/04/06 06:34:31;;;;;;;15.70;8.30;;;2.50;82.00;;;;;;6219074;23;20020;-81
2023/04/06 06:37:01;;;;;;;18.30;8.88;;;2.60;81.10;;;;;;6194972;23;20088;-82
2023/04/06 06:39:29;;;;;;;15.82;8.13;;;2.70;81.00;;;;;;6192195;23;20024;-81
2023/04/06 06:41:56;;;;;;;14.95;8.10;;;2.80;78.30;;;;;;6193762;23;20078;-81
2023/04/06 06:44:42;;;;;;;15.38;7.18;;;2.70;76.60;;;;;;6215103;23;20109;-81
2023/04/06 06:47:10;;;;;;;16.15;7.85;;;2.80;76.80;;;;;;6194029;23;20055;-82
2023/04/06 06:49:37;;;;;;;17.00;7.60;;;2.90;76.50;;;;;;6197810;23;20043;-82
2023/04/06 06:52:04;;;;;;;17.77;7.70;;;2.90;76.20;;;;;;6220111;23;20032;-81
2023/04/06 06:54:31;;;;;;;13.52;8.13;;;3.00;75.40;;;;;;6217784;23;20020;-81
2023/04/06 06:57:00;;;;;;;14.65;8.73;;;3.10;75.30;;;;;;6192777;23;20074;-81
2023/04/06 06:59:27;;;;;;;14.52;8.40;;;3.40;75.10;;;;;;6218514;23;20742;-81
2023/04/06 07:01:55;;;;;;;21.02;8.70;;;3.30;74.30;;;;;;6216454;23;20024;-82
2023/04/06 07:04:22;;;;;;;22.42;11.13;;;3.30;74.50;;;;;;6193410;23;20020;-81
2023/04/06 07:06:50;;;;;;;16.73;7.93;;;3.60;75.40;;;;;;6191322;23;20794;-81
2023/04/06 07:09:17;;;;;;;17.75;7.75;;;3.70;74.10;;;;;;6196449;23;20103;-82
2023/04/06 07:11:44;;;;;;;15.38;7.32;;;3.60;73.30;;;;;;6194641;23;20016;-82
2023/04/06 07:14:12;;;;;;;17.60;8.75;;;3.80;74.00;;;;;;6195233;23;20016;-82
2023/04/06 07:16:39;;;;;;;17.73;8.52;;;3.90;73.20;;;;;;6220831;23;20616;-80
2023/04/06 07:19:06;;;;;;;15.85;8.48;;;3.90;72.20;;;;;;6195698;23;20760;-80
2023/04/06 07:21:33;;;;;;;15.15;7.43;;;3.90;71.70;;;;;;6196030;23;20470;-80
2023/04/06 07:24:01;;;;;;;13.85;7.22;;;4.10;72.60;;;;;;6196388;23;20024;-80
2023/04/06 07:26:28;;;;;;;15.23;7.88;;;4.20;71.50;;;;;;6196479;23;20473;-80
2023/04/06 07:28:56;;;;;;;15.50;6.97;;;4.40;71.30;;;;;;6222948;23;20348;-81
2023/04/06 07:31:24;;;;;;;15.02;7.45;;;4.50;70.10;;;;;;6222156;23;20023;-80
2023/04/06 07:33:52;;;;;;;12.40;6.95;;;4.60;69.50;;;;;;6194819;23;20027;-81
2023/04/06 07:36:20;;;;;;;13.38;7.50;;;4.50;67.60;;;;;;6195701;23;20020;-80
2023/04/06 07:38:48;;;;;;;13.52;6.82;;;4.60;69.10;;;;;;6196504;23;20497;-80
2023/04/06 07:41:17;;;;;;;11.02;5.75;;;4.80;68.30;;;;;;6195773;23;20078;-80
2023/04/06 07:43:45;;;;;;;18.50;7.20;;;5.00;68.20;;;;;;6221054;23;20020;-80
2023/04/06 07:46:12;;;;;;;14.63;6.45;;;5.10;67.10;;;;;;6194081;23;20024;-80
2023/04/06 07:48:39;;;;;;;12.23;6.60;;;5.20;66.50;;;;;;6194296;23;20031;-80
2023/04/06 07:51:08;;;;;;;11.75;4.47;;;5.30;66.00;;;;;;6200621;23;20024;-80
2023/04/06 07:53:40;;;;;;;13.43;6.07;;;5.10;63.30;;;;;;6197973;23;20026;-80
2023/04/06 07:56:07;;;;;;;10.27;5.15;;;5.20;62.50;;;;;;6198386;23;20028;-80
2023/04/06 07:58:34;;;;;;;19.73;7.50;;;5.20;62.00;;;;;;6197542;23;20107;-78
2023/04/06 08:01:01;;;;;;;13.15;6.03;;;5.20;61.10;;;;;;6219849;23;20020;-81
2023/04/06 08:03:29;;;;;;;12.52;5.00;;;5.30;61.80;;;;;;6197677;23;20023;-81
2023/04/06 08:05:56;;;;;;;13.32;5.82;;;5.30;60.70;;;;;;6197424;23;20024;-81
2023/04/06 08:08:23;;;;;;;19.23;8.13;;;5.20;59.90;;;;;;6193981;23;20036;-80
2023/04/06 08:10:52;;;;;;;15.07;7.43;;;5.40;60.70;;;;;;6217786;23;20020;-80
2023/04/06 08:13:19;;;;;;;11.38;5.05;;;5.60;60.80;;;;;;6195969;23;20016;-80
2023/04/06 08:15:46;;;;;;;10.73;4.75;;;5.50;59.90;;;;;;6219464;23;20023;-81
2023/04/06 08:18:13;;;;;;;9.20;4.90;;;5.70;60.00;;;;;;6220670;23;20024;-80
2023/04/06 08:20:41;;;;;;;9.50;5.00;;;5.60;59.30;;;;;;6195716;23;20043;-80
2023/04/06 08:23:09;;;;;;;9.07;4.68;;;5.60;59.40;;;;;;6194416;23;20024;-80
2023/04/06 08:25:36;;;;;;;7.72;4.25;;;5.60;60.00;;;;;;6195640;23;20091;-81
2023/04/06 08:28:04;;;;;;;9.68;5.10;;;5.60;60.20;;;;;;6218367;23;20016;-80
2023/04/06 08:30:31;;;;;;;12.00;5.60;;;5.70;59.70;;;;;;6191420;23;20020;-80
2023/04/06 08:32:58;;;;;;;8.55;4.70;;;5.60;58.90;;;;;;6192315;23;20587;-80
2023/04/06 08:35:27;;;;;;;10.13;5.57;;;5.90;59.30;;;;;;6194015;23;20689;-80
2023/04/06 08:37:54;;;;;;;8.77;4.47;;;5.90;59.40;;;;;;6192641;23;20044;-80
2023/04/06 08:40:21;;;;;;;11.30;5.90;;;5.90;58.70;;;;;;6193986;23;20016;-80
2023/04/06 08:42:56;;;;;;;9.70;5.30;;;5.80;58.70;;;;;;6193292;23;20024;-81
2023/04/06 08:45:23;;;;;;;11.68;5.22;;;5.90;58.70;;;;;;6196097;23;20099;-81
2023/04/06 08:47:52;;;;;;;10.50;5.18;;;6.00;58.30;;;;;;6194423;23;20055;-81
2023/04/06 08:50:19;;;;;;;9.88;5.40;;;6.10;58.30;;;;;;6195900;23;20016;-80
2023/04/06 08:52:49;;;;;;;9.13;4.75;;;6.40;58.40;;;;;;6221918;23;20020;-80
2023/04/06 08:55:18;;;;;;;9.73;4.93;;;6.20;58.10;;;;;;6197259;23;20103;-80
2023/04/06 08:57:46;;;;;;;10.55;4.95;;;6.20;57.80;;;;;;6222575;23;20016;-79
2023/04/06 09:00:15;;;;;;;6.93;4.10;;;6.20;57.80;;;;;;6220639;23;20028;-80
2023/04/06 09:02:45;;;;;;;12.57;5.85;;;6.20;57.20;;;;;;6195093;23;20020;-81
2023/04/06 09:05:12;;;;;;;10.40;4.63;;;6.30;57.00;;;;;;6193184;23;20538;-76
2023/04/06 09:07:40;;;;;;;10.23;4.93;;;6.20;57.50;;;;;;6194716;23;20115;-80
2023/04/06 09:10:08;;;;;;;10.23;5.25;;;6.30;57.90;;;;;;6195608;23;20031;-80
2023/04/06 09:12:35;;;;;;;9.18;4.22;;;6.40;57.70;;;;;;6217368;23;20518;-78
2023/04/06 09:15:02;;;;;;;8.27;5.18;;;6.10;57.70;;;;;;6193586;23;20626;-80
2023/04/06 09:17:33;;;;;;;6.82;3.80;;;6.20;57.70;;;;;;6217958;23;20024;-81
2023/04/06 09:20:02;;;;;;;8.40;3.97;;;6.30;56.80;;;;;;6193439;23;20027;-81
2023/04/06 09:22:37;;;;;;;9.50;4.47;;;6.20;56.30;;;;;;6218610;23;20641;-80
2023/04/06 09:25:05;;;;;;;9.88;5.10;;;6.30;56.70;;;;;;6218001;23;20026;-80
2023/04/06 09:27:38;;;;;;;10.50;5.22;;;6.20;56.50;;;;;;6195295;23;20027;-81
2023/04/06 09:30:13;;;;;;;9.13;4.53;;;6.50;57.40;;;;;;6220920;23;20019;-81
2023/04/06 09:32:52;;;;;;;12.35;6.20;;;6.50;58.00;;;;;;6214933;23;20028;-81
2023/04/06 09:35:21;;;;;;;12.18;5.97;;;6.60;57.60;;;;;;6189626;23;20337;-79
2023/04/06 09:37:49;;;;;;;7.60;4.82;;;6.50;57.90;;;;;;6190143;23;20087;-80
2023/04/06 09:40:18;;;;;;;14.85;5.57;;;6.50;57.80;;;;;;6188722;23;20052;-80
2023/04/06 09:42:47;;;;;;;11.70;6.43;;;6.50;57.40;;;;;;6189893;23;20047;-83
2023/04/06 09:45:15;;;;;;;12.05;5.75;;;6.40;57.40;;;;;;6188952;23;20355;-82
2023/04/06 09:47:45;;;;;;;10.95;5.40;;;6.50;57.80;;;;;;6189623;23;20066;-81
2023/04/06 09:50:16;;;;;;;10.82;5.32;;;6.60;57.50;;;;;;6190602;23;20045;-80
2023/04/06 09:52:49;;;;;;;11.57;5.35;;;6.70;57.20;;;;;;6164561;23;20500;-80
2023/04/06 09:55:27;;;;;;;10.25;5.18;;;6.90;57.90;;;;;;6189440;23;20735;-79
2023/04/06 09:58:10;;;;;;;9.55;4.85;;;6.80;56.70;;;;;;6190367;23;20048;-80
2023/04/06 10:00:44;;;;;;;;;;;7.00;56.90;;;;;;6188502;23;20024;-80
2023/04/06 10:03:11;;;;;;;8.65;4.88;;;7.00;55.70;;;;;;6211769;23;19931;-78
2023/04/06 10:05:46;;;;;;;6.20;3.42;;;7.20;55.60;;;;;;6188259;23;20104;-79
2023/04/06 10:08:15;;;;;;;11.63;6.47;;;7.30;55.50;;;;;;6187595;23;20025;-81
2023/04/06 10:10:43;;;;;;;8.98;4.20;;;7.20;53.70;;;;;;6186542;23;20023;-80
2023/04/06 10:13:11;;;;;;;11.13;6.00;;;7.10;54.20;;;;;;6213761;23;20043;-80
2023/04/06 10:15:42;;;;;;;10.05;4.32;;;7.20;54.60;;;;;;6186291;23;20422;-80
2023/04/06 10:18:09;;;;;;;9.43;4.18;;;7.50;55.70;;;;;;6187203;23;20028;-80
2023/04/06 10:21:08;;;;;;;9.05;4.05;;;7.60;54.30;;;;;;6186578;23;20024;-80
2023/04/06 10:23:38;;;;;;;8.05;3.88;;;7.70;53.90;;;;;;6183359;23;20031;-80
2023/04/06 10:26:05;;;;;;;14.70;5.53;;;7.70;53.80;;;;;;6187943;23;20074;-80
2023/04/06 10:28:35;;;;;;;9.55;4.25;;;7.60;54.00;;;;;;6188636;23;20813;-81
2023/04/06 10:31:06;;;;;;;8.50;4.38;;;7.50;53.90;;;;;;6188079;23;20013;-79
2023/04/06 10:33:34;;;;;;;9.40;5.05;;;7.30;53.80;;;;;;6187975;23;20025;-81
2023/04/06 10:36:21;;;;;;;9.55;4.43;;;7.40;53.80;;;;;;6188763;23;20352;-81
2023/04/06 10:38:55;;;;;;;6.97;4.22;;;7.40;54.20;;;;;;6209508;23;20028;-82
2023/04/06 10:41:23;;;;;;;9.80;5.63;;;7.40;54.40;;;;;;6188368;23;20028;-81
2023/04/06 10:43:56;;;;;;;9.90;4.60;;;7.50;54.10;;;;;;6188669;23;20024;-81
2023/04/06 10:46:32;;;;;;;7.78;3.60;;;7.80;54.10;;;;;;6184809;23;20031;-80
2023/04/06 10:49:11;;;;;;;9.77;3.92;;;8.00;54.40;;;;;;6185463;23;20021;-82
2023/04/06 10:51:39;;;;;;;11.68;5.22;;;8.30;54.50;;;;;;6186513;23;20020;-80
2023/04/06 10:54:07;;;;;;;7.50;4.30;;;8.10;53.60;;;;;;6188357;23;20024;-79
2023/04/06 10:56:38;;;;;;;10.15;5.45;;;8.10;53.60;;;;;;6187860;23;20104;-80
2023/04/06 10:59:06;;;;;;;10.52;5.47;;;8.20;54.20;;;;;;6212590;23;20163;-80
2023/04/06 11:01:33;;;;;;;10.82;5.63;;;8.10;54.00;;;;;;6189632;23;20020;-82
2023/04/06 11:04:01;;;;;;;10.30;5.30;;;8.40;54.70;;;;;;6212972;23;20056;-79
2023/04/06 11:06:31;;;;;;;10.18;4.85;;;7.90;54.00;;;;;;6186144;23;20051;-82
2023/04/06 11:08:59;;;;;;;9.23;4.55;;;7.80;53.80;;;;;;6184436;23;20486;-79
2023/04/06 11:11:26;;;;;;;9.15;4.95;;;7.70;53.70;;;;;;6187849;23;20024;-81
2023/04/06 11:13:56;;;;;;;10.93;5.18;;;7.80;53.30;;;;;;6215289;23;20075;-81
2023/04/06 11:16:33;;;;;;;9.35;4.00;;;7.80;53.90;;;;;;6188291;23;20017;-80
2023/04/06 11:19:06;;;;;;;8.13;3.80;;;7.80;53.30;;;;;;6187220;23;20027;-80
2023/04/06 11:21:39;;;;;;;14.57;6.32;;;8.00;53.50;;;;;;6189735;23;20467;-80
2023/04/06 11:24:08;;;;;;;7.65;4.38;;;8.20;53.40;;;;;;6188122;23;20071;-82
2023/04/06 11:26:40;;;;;;;8.25;4.60;;;8.20;53.20;;;;;;6213212;23;20028;-81
2023/04/06 11:29:07;;;;;;;7.70;3.55;;;8.40;53.50;;;;;;6186026;23;20375;-80
2023/04/06 11:31:45;;;;;;;15.05;6.93;;;8.50;53.10;;;;;;6213028;23;20039;-81
2023/04/06 11:34:17;;;;;;;8.60;5.40;;;8.30;53.20;;;;;;6186060;23;20021;-81
2023/04/06 11:36:46;;;;;;;8.32;4.63;;;8.10;53.40;;;;;;6186393;23;20055;-82
2023/04/06 11:39:18;;;;;;;9.68;4.50;;;8.40;53.70;;;;;;6185632;23;20024;-80
2023/04/06 11:41:57;;;;;;;12.52;7.10;;;8.50;52.60;;;;;;6212842;23;20731;-81
2023/04/06 11:44:45;;;;;;;12.35;6.80;;;8.60;53.00;;;;;;6184776;23;20025;-82
2023/04/06 11:47:13;;;;;;;8.00;4.88;;;8.80;53.20;;;;;;6182837;23;20020;-81
2023/04/06 11:49:42;;;;;;;9.93;5.88;;;8.70;52.60;;;;;;6186055;23;20051;-82
2023/04/06 11:52:20;;;;;;;11.85;6.20;;;8.60;52.30;;;;;;6209767;23;20020;-80
2023/04/06 11:54:49;;;;;;;11.05;6.60;;;8.50;53.00;;;;;;6209718;23;20074;-80
2023/04/06 11:57:18;;;;;;;7.30;4.47;;;8.40;53.30;;;;;;6185267;23;20024;-80
2023/04/06 11:59:46;;;;;;;10.07;5.85;;;8.30;52.20;;;;;;6186422;23;20393;-80
2023/04/06 12:02:13;;;;;;;9.48;4.60;;;8.20;53.20;;;;;;6186211;23;20023;-80
2023/04/06 12:04:40;;;;;;;9.98;4.43;;;8.10;52.40;;;;;;6210584;23;20666;-81
2023/04/06 12:07:07;;;;;;;9.65;4.90;;;8.10;52.40;;;;;;6211571;23;20024;-80
2023/04/06 12:09:35;;;;;;;6.43;3.97;;;8.00;52.30;;;;;;6186541;23;20103;-81
2023/04/06 12:12:03;;;;;;;7.88;3.88;;;8.00;52.40;;;;;;6185460;23;20036;-81
2023/04/06 12:14:30;;;;;;;7.32;4.10;;;8.20;53.40;;;;;;6210970;23;20100;-81
2023/04/06 12:16:58;;;;;;;6.13;4.22;;;8.30;53.10;;;;;;6184679;23;20016;-82
2023/04/06 12:19:25;;;;;;;10.85;5.25;;;8.20;53.10;;;;;;6184909;23;20025;-81
2023/04/06 12:21:54;;;;;;;6.95;4.57;;;7.30;52.40;;;;;;6188135;23;20642;-82
2023/04/06 12:24:21;;;;;;;7.38;3.50;;;8.10;53.60;;;;;;6182408;23;20646;-80
2023/04/06 12:26:49;;;;;;;8.23;4.03;;;8.20;53.10;;;;;;6185348;23;20024;-82
2023/04/06 12:29:25;;;;;;;8.73;3.78;;;8.40;53.70;;;;;;6186075;23;20024;-81
2023/04/06 12:31:52;;;;;;;6.57;3.28;;;8.60;54.00;;;;;;6183582;23;20822;-80
2023/04/06 12:34:20;;;;;;;7.38;3.95;;;8.50;53.10;;;;;;6184413;23;20119;-81
2023/04/06 12:36:47;;;;;;;7.15;3.47;;;8.60;52.80;;;;;;6187774;23;20023;-79
2023/04/06 12:39:16;;;;;;;7.97;3.70;;;8.70;52.10;;;;;;6184659;23;20872;-80
2023/04/06 12:41:46;;;;;;;8.07;4.22;;;8.70;53.00;;;;;;6209916;23;20661;-82
2023/04/06 12:44:13;;;;;;;7.75;4.20;;;8.80;53.50;;;;;;6186066;23;20028;-82
2023/04/06 12:46:40;;;;;;;11.43;6.38;;;8.70;54.30;;;;;;6186687;23;20051;-82
2023/04/06 12:49:07;;;;;;;9.32;3.85;;;8.70;53.90;;;;;;6186170;23;20208;-80
2023/04/06 12:51:35;;;;;;;32.15;12.35;;;8.60;53.50;;;;;;6186784;23;20021;-80
2023/04/06 12:54:02;;;;;;;72.35;37.15;;;8.60;54.20;;;;;;6186673;23;20016;-80
2023/04/06 12:56:30;;;;;;;10.88;6.80;;;8.50;53.60;;;;;;6213479;23;20083;-80
2023/04/06 12:58:58;;;;;;;20.23;11.10;;;8.50;54.00;;;;;;6186737;23;20029;-79
2023/04/06 13:01:27;;;;;;;9.60;4.78;;;8.50;54.30;;;;;;6186032;23;20025;-81